Time;durP1;ratioP1;P1;durP2;ratioP2;P2;SDS_P1;SDS_P2;PMS_P1;PMS_P2;Temp;Humidity;BMP_temperature;BMP_pressure;BME280_temperature;BME280_humidity;BME280_pressure;Samples;Min_cycle;Max_cycle;Signal;HPM_P1;HPM_P2
2021/08/28 00:00:02;;;;;;;5.78;4.30;;;;;;;22.46;100.00;100607.16;1777959;78;21592;-58
2021/08/28 00:02:31;;;;;;;8.43;5.22;;;;;;;22.51;100.00;100606.76;1778065;78;21044;-59
2021/08/28 00:04:58;;;;;;;6.62;4.67;;;;;;;22.56;100.00;100597.16;1780955;80;20989;-60
2021/08/28 00:07:40;;;;;;;6.20;5.10;;;;;;;22.63;100.00;100606.17;1764615;78;21029;-59
2021/08/28 00:10:09;;;;;;;8.85;4.70;;;;;;;22.68;100.00;100606.66;1771030;80;21964;-59
2021/08/28 00:12:36;;;;;;;7.58;4.50;;;;;;;22.73;100.00;100598.91;1745422;80;21023;-57
2021/08/28 00:15:04;;;;;;;8.28;4.70;;;;;;;22.78;100.00;100599.34;1776820;78;21064;-60
2021/08/28 00:17:35;;;;;;;8.68;5.00;;;;;;;22.85;100.00;100601.88;1751944;79;21031;-57
2021/08/28 00:20:05;;;;;;;8.95;4.83;;;;;;;22.92;100.00;100596.73;1789445;78;21031;-60
2021/08/28 00:22:34;;;;;;;8.35;4.33;;;;;;;22.96;100.00;100597.34;1772011;80;21104;-58
2021/08/28 00:25:04;;;;;;;7.08;4.53;;;;;;;22.98;100.00;100607.63;1785434;78;21107;-59
2021/08/28 00:27:33;;;;;;;6.47;4.20;;;;;;;22.99;100.00;100607.99;1775706;78;21016;-59
2021/08/28 00:33:13;;;;;;;6.60;4.42;;;;;;;23.06;100.00;100612.41;1772191;79;21031;-58
2021/08/28 00:35:40;;;;;;;6.58;4.40;;;;;;;23.05;100.00;100614.27;1784803;78;21484;-60
2021/08/28 00:38:08;;;;;;;7.55;4.22;;;;;;;23.04;100.00;100618.00;1772399;79;21517;-58
2021/08/28 00:40:37;;;;;;;10.65;4.25;;;;;;;23.05;100.00;100622.47;1781628;78;21159;-58
2021/08/28 00:43:06;;;;;;;9.00;4.40;;;;;;;23.06;100.00;100625.56;1753872;80;21031;-60
2021/08/28 00:45:35;;;;;;;9.35;4.42;;;;;;;23.05;100.00;100626.56;1718282;81;21084;-60
2021/08/28 00:48:07;;;;;;;8.78;4.50;;;;;;;23.06;100.00;100631.55;1725069;82;21156;-60
2021/08/28 00:50:36;;;;;;;9.05;4.42;;;;;;;23.04;100.00;100635.77;1722980;82;21085;-59
2021/08/28 00:53:05;;;;;;;8.63;4.60;;;;;;;23.03;100.00;100621.73;1725784;81;21526;-59
2021/08/28 00:55:32;;;;;;;13.28;4.78;;;;;;;23.03;99.83;100628.58;1752458;80;21508;-60
2021/08/28 00:58:00;;;;;;;15.38;4.65;;;;;;;22.98;99.69;100626.25;1728274;82;21556;-60
2021/08/28 01:00:28;;;;;;;13.30;4.90;;;;;;;22.93;99.77;100622.22;1744606;80;21077;-59
2021/08/28 01:02:55;;;;;;;19.40;5.17;;;;;;;22.91;100.00;100618.77;1731858;81;21597;-59
2021/08/28 01:05:29;;;;;;;10.25;4.60;;;;;;;22.86;100.00;100620.02;1735526;82;21046;-59
2021/08/28 01:08:14;;;;;;;15.00;5.03;;;;;;;22.84;100.00;100622.54;1737983;80;21715;-59
2021/08/28 01:10:56;;;;;;;11.63;4.78;;;;;;;22.82;100.00;100625.39;1721501;82;21121;-59
2021/08/28 01:13:49;;;;;;;9.60;4.90;;;;;;;22.80;100.00;100626.03;1731087;82;21028;-59
2021/08/28 01:16:17;;;;;;;11.65;4.78;;;;;;;22.82;100.00;100621.30;1730553;80;21063;-60
2021/08/28 01:18:46;;;;;;;9.18;4.25;;;;;;;22.88;100.00;100619.41;1742904;80;21033;-58
2021/08/28 01:21:28;;;;;;;7.83;4.65;;;;;;;22.87;100.00;100614.91;1703220;82;21155;-60
2021/08/28 01:24:05;;;;;;;7.07;4.90;;;;;;;22.86;99.94;100620.02;1693856;80;21001;-59
2021/08/28 01:27:12;;;;;;;8.48;5.45;;;;;;;22.84;99.66;100623.39;1736053;81;20941;-59
2021/08/28 01:29:53;;;;;;;16.57;5.62;;;;;;;22.77;99.58;100616.75;1740014;80;21661;-59
2021/08/28 01:32:21;;;;;;;12.00;5.40;;;;;;;22.71;99.77;100617.30;1739355;81;21037;-59
2021/08/28 01:34:49;;;;;;;19.48;6.60;;;;;;;22.65;99.85;100614.61;1736271;81;21566;-59
2021/08/28 01:37:23;;;;;;;18.10;5.97;;;;;;;22.60;100.00;100609.55;1729406;81;21039;-58
2021/08/28 01:39:49;;;;;;;11.53;5.78;;;;;;;22.58;100.00;100608.81;1726919;82;21097;-61
2021/08/28 01:42:18;;;;;;;10.00;5.60;;;;;;;22.56;100.00;100601.26;1723426;81;21059;-59
2021/08/28 01:44:47;;;;;;;10.85;6.00;;;;;;;22.56;100.00;100602.63;1726962;82;21044;-59
2021/08/28 01:47:18;;;;;;;19.10;6.28;;;;;;;22.55;100.00;100598.17;1716731;82;21148;-58
2021/08/28 01:49:48;;;;;;;25.23;6.80;;;;;;;22.55;100.00;100602.27;1700295;83;21493;-58
2021/08/28 01:52:15;;;;;;;30.37;8.28;;;;;;;22.55;100.00;100606.36;1722516;82;21226;-59
2021/08/28 01:54:49;;;;;;;22.17;6.62;;;;;;;22.51;100.00;100606.27;1719695;82;21025;-58
2021/08/28 01:57:16;;;;;;;26.97;7.28;;;;;;;22.46;100.00;100616.72;1715887;81;21151;-60
2021/08/28 01:59:45;;;;;;;23.75;7.05;;;;;;;22.41;100.00;100610.77;1710020;82;21121;-60
2021/08/28 02:02:26;;;;;;;22.93;7.17;;;;;;;22.36;100.00;100611.67;1710499;82;21108;-59
2021/08/28 02:04:55;;;;;;;30.27;7.33;;;;;;;22.28;100.00;100615.95;1724773;80;21125;-58
2021/08/28 02:07:52;;;;;;;26.65;7.10;;;;;;;22.21;100.00;100619.34;1723752;81;21498;-60
2021/08/28 02:10:28;;;;;;;26.35;7.72;;;;;;;22.16;100.00;100622.47;1711892;83;21013;-60
2021/08/28 02:12:59;;;;;;;26.57;7.00;;;;;;;22.11;100.00;100622.00;1718628;82;21112;-61
2021/08/28 02:15:46;;;;;;;30.73;7.97;;;;;;;22.07;100.00;100620.54;1754884;80;21308;-61
2021/08/28 02:18:22;;;;;;;30.65;9.13;;;;;;;22.02;100.00;100619.08;1759408;81;22015;-60
2021/08/28 02:20:59;;;;;;;36.60;8.75;;;;;;;22.03;100.00;100623.53;1694845;83;22476;-58
2021/08/28 02:23:38;;;;;;;42.13;9.10;;;;;;;21.98;100.00;100620.31;1717641;82;21064;-58
2021/08/28 02:26:29;;;;;;;32.50;8.93;;;;;;;21.93;100.00;100621.73;1716612;82;21513;-59
2021/08/28 02:29:00;;;;;;;57.65;9.85;;;;;;;21.86;100.00;100626.32;1723764;82;20921;-59
2021/08/28 02:31:32;;;;;;;34.03;9.53;;;;;;;21.80;100.00;100626.85;1724604;81;21145;-59
2021/08/28 02:34:00;;;;;;;38.15;9.45;;;;;;;21.75;100.00;100633.20;1699926;81;20985;-60
2021/08/28 02:36:27;;;;;;;40.48;8.83;;;;;;;21.71;100.00;100630.37;1694564;82;21085;-60
2021/08/28 02:38:54;;;;;;;38.67;8.38;;;;;;;21.67;100.00;100629.75;1724181;81;21068;-60
2021/08/28 02:41:22;;;;;;;46.83;9.25;;;;;;;21.66;100.00;100636.20;1704829;82;21029;-60
2021/08/28 02:43:50;;;;;;;30.95;8.63;;;;;;;21.68;100.00;100633.36;1730741;81;21069;-60
2021/08/28 02:46:18;;;;;;;30.20;8.23;;;;;;;21.72;100.00;100634.31;1705049;83;21550;-60
2021/08/28 02:48:46;;;;;;;40.25;9.60;;;;;;;21.75;100.00;100638.66;1719956;83;21521;-58
2021/08/28 02:51:13;;;;;;;28.05;10.25;;;;;;;21.70;100.00;100640.92;1719856;81;21538;-58
2021/08/28 02:53:44;;;;;;;41.10;10.93;;;;;;;21.53;100.00;100645.00;1739281;81;21322;-60
2021/08/28 02:56:12;;;;;;;34.88;10.63;;;;;;;21.35;100.00;100643.31;1736767;81;21105;-61
2021/08/28 02:58:40;;;;;;;34.53;9.55;;;;;;;21.24;100.00;100640.99;1715981;81;21049;-60
2021/08/28 03:01:07;;;;;;;32.63;9.25;;;;;;;21.21;100.00;100640.37;1698398;83;21073;-61
2021/08/28 03:03:34;;;;;;;58.23;12.00;;;;;;;21.22;100.00;100646.19;1703868;83;21586;-60
2021/08/28 03:06:03;;;;;;;42.17;10.98;;;;;;;21.23;100.00;100646.55;1691601;83;21072;-58
2021/08/28 03:08:33;;;;;;;33.80;10.53;;;;;;;21.23;100.00;100648.80;1713649;82;21147;-59
2021/08/28 03:11:01;;;;;;;34.33;10.55;;;;;;;21.28;100.00;100647.04;1697522;81;21108;-60
2021/08/28 03:13:29;;;;;;;42.90;10.65;;;;;;;21.29;100.00;100640.11;1716478;82;21108;-58
2021/08/28 03:15:58;;;;;;;38.58;10.10;;;;;;;21.31;100.00;100649.51;1707064;81;20894;-59
2021/08/28 03:18:27;;;;;;;42.93;10.95;;;;;;;21.32;100.00;100644.42;1719481;81;21096;-59
2021/08/28 03:20:55;;;;;;;26.85;9.30;;;;;;;21.34;100.00;100643.83;1731338;81;21099;-59
2021/08/28 03:23:27;;;;;;;44.42;11.20;;;;;;;21.47;100.00;100649.98;1712578;83;21700;-60
2021/08/28 03:25:58;;;;;;;22.70;7.90;;;;;;;21.57;100.00;100653.33;1713620;81;21431;-59
2021/08/28 03:29:02;;;;;;;40.90;11.10;;;;;;;21.60;100.00;100652.55;1727548;81;21096;-59
2021/08/28 03:31:32;;;;;;;41.10;10.55;;;;;;;21.66;100.00;100652.58;1708790;83;21558;-60
2021/08/28 03:33:59;;;;;;;38.33;10.93;;;;;;;21.66;100.00;100663.48;1716845;82;21867;-59
2021/08/28 03:36:26;;;;;;;39.33;10.75;;;;;;;21.63;100.00;100659.62;1716739;81;21108;-59
2021/08/28 03:38:53;;;;;;;33.05;10.58;;;;;;;21.61;100.00;100664.34;1675518;82;21103;-59
2021/08/28 03:41:21;;;;;;;31.50;9.53;;;;;;;21.60;100.00;100666.70;1688522;82;21338;-59
2021/08/28 03:46:33;;;;;;;40.85;11.55;;;;;;;21.77;100.00;100679.44;1807630;78;22705;-58
2021/08/28 03:49:01;;;;;;;25.37;9.10;;;;;;;21.79;100.00;100686.52;1773664;79;21548;-60
2021/08/28 03:51:28;;;;;;;17.05;8.33;;;;;;;21.88;100.00;100680.78;1776730;79;21707;-59
2021/08/28 03:56:36;;;;;;;19.65;8.43;;;;;;;22.08;100.00;100685.05;1779470;79;20948;-59
2021/08/28 03:59:03;;;;;;;20.27;8.83;;;;;;;22.16;100.00;100688.88;1776222;79;20961;-59
2021/08/28 04:01:31;;;;;;;31.05;9.40;;;;;;;22.23;100.00;100686.48;1770851;79;21004;-59
2021/08/28 04:04:04;;;;;;;23.15;8.53;;;;;;;22.26;100.00;100686.22;1776015;79;21141;-58
2021/08/28 04:06:31;;;;;;;20.32;7.87;;;;;;;22.28;100.00;100686.95;1770855;79;20980;-60
2021/08/28 04:08:59;;;;;;;23.60;7.85;;;;;;;22.37;100.00;100681.20;1770664;80;21374;-59
2021/08/28 04:11:26;;;;;;;28.80;8.95;;;;;;;22.48;100.00;100688.50;1779339;77;21072;-59
2021/08/28 04:13:58;;;;;;;22.20;8.33;;;;;;;22.54;100.00;100692.05;1774543;79;21398;-60
2021/08/28 04:16:25;;;;;;;27.07;8.60;;;;;;;22.61;100.00;100689.14;1775637;79;21049;-60
2021/08/28 04:18:56;;;;;;;23.80;8.23;;;;;;;22.70;99.55;100696.19;1774767;80;21548;-59
2021/08/28 04:21:25;;;;;;;23.00;9.08;;;;;;;22.78;99.02;100694.16;1778483;79;21000;-59
2021/08/28 04:23:52;;;;;;;18.90;8.70;;;;;;;22.83;98.42;100699.55;1764718;80;20949;-59
2021/08/28 04:26:27;;;;;;;23.52;8.30;;;;;;;22.90;98.13;100702.61;1768446;79;22217;-58
2021/08/28 04:28:55;;;;;;;25.50;8.98;;;;;;;22.97;97.74;100692.02;1772808;79;21854;-59
2021/08/28 04:31:23;;;;;;;22.98;9.65;;;;;;;22.99;97.17;100688.64;1772519;79;21647;-58
2021/08/28 04:33:51;;;;;;;23.15;9.38;;;;;;;23.00;96.82;100697.20;1791714;79;21446;-59
2021/08/28 04:36:18;;;;;;;32.73;9.15;;;;;;;23.01;96.58;100701.17;1765791;79;21461;-59
2021/08/28 04:38:45;;;;;;;28.65;9.80;;;;;;;23.04;96.68;100698.65;1775444;79;21452;-59
2021/08/28 04:41:18;;;;;;;28.57;9.28;;;;;;;23.07;96.68;100697.00;1767868;80;21820;-59
2021/08/28 04:43:47;;;;;;;27.60;9.38;;;;;;;23.12;96.65;100705.69;1715080;82;21465;-59
2021/08/28 04:46:19;;;;;;;23.32;9.30;;;;;;;23.17;96.25;100699.78;1737314;80;21488;-60
2021/08/28 04:48:48;;;;;;;23.77;9.35;;;;;;;23.24;96.25;100701.48;1729049;81;21122;-59
2021/08/28 04:51:20;;;;;;;26.52;8.85;;;;;;;23.36;96.29;100704.52;1673878;81;21086;-60
2021/08/28 04:53:47;;;;;;;23.42;7.60;;;;;;;23.53;96.13;100695.25;1729667;81;21062;-60
2021/08/28 04:56:16;;;;;;;20.88;6.80;;;;;;;23.73;95.67;100696.19;1739789;80;21037;-60
2021/08/28 04:58:44;;;;;;;23.75;6.40;;;;;;;23.94;94.96;100701.53;1744378;80;21047;-60
2021/08/28 05:01:17;;;;;;;19.65;6.17;;;;;;;24.15;94.20;100701.45;1684358;81;21462;-60
2021/08/28 05:04:02;;;;;;;12.78;4.90;;;;;;;24.37;93.51;100702.65;1735195;82;21130;-59
2021/08/28 05:06:29;;;;;;;13.20;5.05;;;;;;;24.60;92.63;100698.58;1735765;82;21764;-59
2021/08/28 05:08:59;;;;;;;28.92;7.62;;;;;;;24.80;91.61;100704.05;1723984;82;21029;-58
2021/08/28 05:11:26;;;;;;;68.67;10.80;;;;;;;25.00;90.53;100701.26;1741785;80;21426;-59
2021/08/28 05:13:59;;;;;;;38.25;8.68;;;;;;;25.18;88.82;100710.92;1732515;82;21091;-59
2021/08/28 05:16:27;;;;;;;45.30;8.83;;;;;;;25.32;87.45;100712.34;1736677;80;21020;-59
2021/08/28 05:18:55;;;;;;;73.92;10.18;;;;;;;25.45;86.81;100710.61;1731581;80;20941;-59
2021/08/28 05:21:25;;;;;;;43.90;8.45;;;;;;;25.62;85.91;100711.69;1736456;82;21071;-61
2021/08/28 05:24:10;;;;;;;28.07;5.05;;;;;;;25.79;85.18;100707.77;1738418;80;21127;-60
2021/08/28 05:26:43;;;;;;;15.45;4.70;;;;;;;25.95;83.45;100709.81;1731423;82;21048;-60
2021/08/28 05:29:10;;;;;;;50.70;6.75;;;;;;;26.10;82.33;100715.63;1727820;82;21025;-60
2021/08/28 05:31:37;;;;;;;17.15;5.15;;;;;;;26.27;80.79;100717.55;1733113;81;21064;-60
2021/08/28 05:34:06;;;;;;;30.70;5.60;;;;;;;26.45;79.84;100724.92;1738265;80;21084;-60
2021/08/28 05:37:06;;;;;;;48.35;7.67;;;;;;;26.74;77.74;100726.51;1731335;81;21470;-60
2021/08/28 05:39:38;;;;;;;65.22;8.93;;;;;;;27.15;76.50;100730.05;1721058;81;21091;-58
2021/08/28 05:42:06;;;;;;;49.03;7.35;;;;;;;27.66;74.97;100726.02;1713554;80;20973;-61
2021/08/28 05:44:34;;;;;;;36.93;6.90;;;;;;;28.30;72.56;100736.52;1733313;82;21127;-59
2021/08/28 05:47:01;;;;;;;26.77;5.05;;;;;;;28.83;69.40;100737.55;1718627;82;20967;-60
2021/08/28 05:49:28;;;;;;;22.25;4.92;;;;;;;29.26;67.02;100740.55;1709794;83;21136;-59
2021/08/28 05:51:56;;;;;;;30.65;5.40;;;;;;;29.53;64.79;100732.92;1712479;83;21120;-59
2021/08/28 05:54:25;;;;;;;20.82;4.65;;;;;;;29.76;63.28;100732.11;1714528;82;21100;-61
2021/08/28 05:56:52;;;;;;;18.50;5.40;;;;;;;29.87;62.23;100734.45;1708592;83;21071;-60
2021/08/28 05:59:20;;;;;;;14.13;5.00;;;;;;;29.73;62.49;100732.82;1714111;81;21256;-59
2021/08/28 06:01:48;;;;;;;26.00;4.90;;;;;;;29.57;62.38;100734.28;1727158;81;21105;-61
2021/08/28 06:04:16;;;;;;;14.87;4.40;;;;;;;29.29;62.61;100743.84;1707126;82;21014;-59
2021/08/28 06:06:48;;;;;;;13.18;4.53;;;;;;;29.05;62.78;100744.75;1662720;83;21022;-60
2021/08/28 06:09:33;;;;;;;11.80;5.12;;;;;;;28.77;63.40;100742.36;1704608;83;21134;-60
2021/08/28 06:12:20;;;;;;;10.72;4.62;;;;;;;28.51;64.63;100739.28;1718734;81;21528;-60
2021/08/28 06:14:52;;;;;;;10.72;4.67;;;;;;;28.25;65.52;100739.42;1716285;81;21111;-60
2021/08/28 06:17:25;;;;;;;9.08;4.53;;;;;;;28.00;65.80;100740.23;1719663;81;21632;-59
2021/08/28 06:19:52;;;;;;;14.58;5.03;;;;;;;27.78;66.94;100739.49;1719332;82;21093;-59
2021/08/28 06:25:08;;;;;;;8.78;4.80;;;;;;;27.74;66.80;100742.59;1716787;81;21048;-59
2021/08/28 06:27:35;;;;;;;7.97;4.40;;;;;;;27.68;66.47;100734.97;1710172;83;21539;-59
2021/08/28 06:30:06;;;;;;;12.18;5.00;;;;;;;27.63;66.60;100736.49;1715708;82;21088;-60
2021/08/28 06:32:32;;;;;;;7.58;4.28;;;;;;;27.64;66.97;100742.37;1715210;83;20990;-59
2021/08/28 06:34:59;;;;;;;10.53;4.47;;;;;;;27.78;66.94;100747.76;1728455;81;21546;-60
2021/08/28 06:37:28;;;;;;;8.73;4.33;;;;;;;27.91;66.37;100745.37;1711184;82;21158;-58
2021/08/28 06:40:03;;;;;;;;;;;;;;;28.05;65.90;100748.51;1697147;81;21096;-60
2021/08/28 06:42:49;;;;;;;11.25;5.28;;;;;;;28.05;65.73;100751.27;1719952;82;20162;-59
2021/08/28 06:45:20;;;;;;;11.95;4.90;;;;;;;28.01;65.97;100755.73;1708687;81;21065;-59
2021/08/28 06:48:08;;;;;;;;;;;;;;;27.97;66.25;100744.72;1756057;80;21133;-60
2021/08/28 06:51:14;;;;;;;14.13;5.28;;;;;;;28.03;65.83;100748.16;1750154;80;20226;-60
2021/08/28 06:53:43;;;;;;;12.50;5.00;;;;;;;28.12;65.38;100752.30;1686412;82;21534;-61
2021/08/28 06:56:14;;;;;;;11.18;4.83;;;;;;;28.10;65.47;100744.22;1714613;82;21819;-59
2021/08/28 07:01:50;;;;;;;6.83;4.95;;;;;;;27.97;66.23;100752.98;1727609;82;21184;-59
2021/08/28 07:04:34;;;;;;;13.70;5.15;;;;;;;27.92;67.79;100760.86;1730710;82;21111;-60
2021/08/28 07:07:15;;;;;;;9.05;4.30;;;;;;;28.01;67.78;100758.49;1733683;80;21092;-59
2021/08/28 07:09:44;;;;;;;11.50;5.30;;;;;;;28.02;67.41;100751.95;1749345;80;21117;-59
2021/08/28 07:12:12;;;;;;;16.17;7.30;;;;;;;28.08;68.55;100757.31;1738673;80;21103;-59
2021/08/28 07:14:41;;;;;;;11.90;6.37;;;;;;;28.09;69.91;100766.42;1722214;81;21123;-59
2021/08/28 07:17:09;;;;;;;9.35;5.75;;;;;;;28.07;70.18;100759.69;1725927;82;21093;-59
2021/08/28 07:19:36;;;;;;;9.70;5.42;;;;;;;28.12;69.01;100763.32;1714950;82;21138;-59
2021/08/28 07:22:05;;;;;;;8.03;5.15;;;;;;;28.14;68.89;100767.64;1731279;81;20965;-59
2021/08/28 07:24:33;;;;;;;10.20;5.78;;;;;;;28.10;68.62;100768.14;1746784;81;21129;-59
2021/08/28 07:27:01;;;;;;;13.70;7.05;;;;;;;28.13;68.89;100764.55;1741653;81;21965;-59
2021/08/28 07:29:46;;;;;;;11.12;7.20;;;;;;;28.10;70.00;100769.52;1742137;81;21540;-58
2021/08/28 07:32:13;;;;;;;13.58;7.28;;;;;;;28.00;71.20;100768.30;1729709;81;21063;-59
2021/08/28 07:34:41;;;;;;;15.15;9.28;;;;;;;27.96;71.77;100772.42;1727751;82;21029;-58
2021/08/28 07:37:09;;;;;;;11.43;8.98;;;;;;;27.96;72.63;100762.25;1744793;80;21110;-61
2021/08/28 07:39:36;;;;;;;12.47;10.10;;;;;;;27.98;72.72;100762.97;1746980;80;21650;-59
2021/08/28 07:42:04;;;;;;;16.10;11.28;;;;;;;27.96;73.36;100764.16;1718769;81;21020;-59
2021/08/28 07:44:32;;;;;;;18.48;11.40;;;;;;;27.93;73.49;100766.72;1719697;82;21114;-60
2021/08/28 07:47:00;;;;;;;14.25;10.48;;;;;;;27.90;73.50;100760.17;1697461;82;21067;-60
2021/08/28 07:49:35;;;;;;;15.50;11.83;;;;;;;27.81;73.51;100766.70;1713560;83;21057;-59
2021/08/28 07:52:03;;;;;;;19.07;13.00;;;;;;;27.71;74.37;100762.17;1720929;83;21733;-59
2021/08/28 07:54:30;;;;;;;17.57;12.28;;;;;;;27.66;75.33;100774.73;1719944;81;21360;-59
2021/08/28 07:59:28;;;;;;;16.45;12.15;;;;;;;27.49;76.22;100768.24;1708977;82;21037;-61
2021/08/28 08:01:55;;;;;;;16.87;11.95;;;;;;;27.52;75.88;100761.05;1756471;79;21139;-59
2021/08/28 08:04:23;;;;;;;20.45;11.33;;;;;;;27.45;75.79;100760.84;1762317;79;21133;-59
2021/08/28 08:07:01;;;;;;;14.43;11.18;;;;;;;27.35;76.59;100766.47;1758568;81;21450;-58
2021/08/28 08:09:36;;;;;;;14.83;11.05;;;;;;;27.31;76.62;100761.80;1719546;81;21041;-59
2021/08/28 08:12:22;;;;;;;18.82;10.72;;;;;;;27.30;76.59;100760.08;1768137;79;21025;-59
2021/08/28 08:15:10;;;;;;;13.10;9.70;;;;;;;27.24;76.81;100768.12;1766229;79;21029;-59
2021/08/28 08:17:55;;;;;;;10.45;8.55;;;;;;;27.23;77.37;100763.14;1763908;79;21125;-59
2021/08/28 08:20:34;;;;;;;11.80;8.05;;;;;;;27.25;77.13;100758.83;1771275;79;21030;-59
2021/08/28 08:23:03;;;;;;;13.25;7.05;;;;;;;27.27;77.08;100759.03;1768458;79;21522;-60
2021/08/28 08:25:42;;;;;;;9.33;6.10;;;;;;;27.38;76.40;100773.02;1764190;79;21041;-59
2021/08/28 08:28:10;;;;;;;11.53;6.53;;;;;;;27.49;74.38;100761.36;1735633;79;21033;-61
2021/08/28 08:30:56;;;;;;;10.60;6.42;;;;;;;27.54;74.17;100756.27;1771806;79;21978;-60
2021/08/28 08:33:24;;;;;;;10.95;7.47;;;;;;;27.59;73.18;100759.39;1764248;78;21052;-60
2021/08/28 08:35:53;;;;;;;11.15;6.17;;;;;;;27.52;73.22;100756.92;1771798;79;21439;-59
2021/08/28 08:38:20;;;;;;;7.20;5.78;;;;;;;27.38;73.64;100768.89;1761859;79;21037;-59
2021/08/28 08:40:48;;;;;;;8.98;5.25;;;;;;;27.37;73.94;100765.80;1761169;79;21037;-60
2021/08/28 08:43:15;;;;;;;9.65;5.33;;;;;;;27.44;72.78;100760.50;1772794;79;21296;-61
2021/08/28 08:45:44;;;;;;;8.53;6.05;;;;;;;27.49;73.10;100754.48;1769316;79;21640;-58
2021/08/28 08:48:13;;;;;;;16.20;6.87;;;;;;;27.56;72.77;100766.61;1775017;78;21103;-59
2021/08/28 08:53:20;;;;;;;11.15;5.80;;;;;;;27.59;71.43;100758.86;1784281;78;21493;-58
2021/08/28 08:55:51;;;;;;;6.83;5.17;;;;;;;27.55;71.07;100760.22;1788742;78;21031;-56
2021/08/28 08:58:18;;;;;;;8.23;5.10;;;;;;;27.55;71.79;100749.20;1795329;78;21207;-58
2021/08/28 09:00:47;;;;;;;7.15;5.10;;;;;;;27.59;71.54;100753.88;1779070;78;21068;-59
2021/08/28 09:03:26;;;;;;;10.78;5.60;;;;;;;27.64;70.97;100752.86;1775950;78;21104;-59
2021/08/28 09:06:04;;;;;;;8.60;5.33;;;;;;;27.66;70.82;100754.09;1784662;78;20985;-60
2021/08/28 09:08:40;;;;;;;9.38;5.55;;;;;;;27.71;70.30;100755.81;1788528;78;21142;-61
2021/08/28 09:11:31;;;;;;;6.42;5.00;;;;;;;27.70;70.18;100760.98;1778501;77;21033;-59
2021/08/28 09:16:33;;;;;;;5.97;4.65;;;;;;;27.60;68.86;100759.20;1779693;78;21215;-58
2021/08/28 09:19:00;;;;;;;8.10;4.15;;;;;;;27.57;69.39;100749.91;1776026;78;21028;-61
2021/08/28 09:21:30;;;;;;;6.67;5.10;;;;;;;27.60;69.18;100748.72;1793600;78;21827;-59
2021/08/28 09:24:03;;;;;;;5.83;4.70;;;;;;;27.64;69.00;100756.14;1787093;78;21044;-58
2021/08/28 09:26:36;;;;;;;4.80;4.03;;;;;;;27.60;69.28;100758.36;1782604;78;20932;-59
2021/08/28 09:29:05;;;;;;;4.80;4.05;;;;;;;27.53;69.48;100758.69;1778618;78;21003;-59
2021/08/28 09:31:38;;;;;;;9.05;4.58;;;;;;;27.53;69.72;100756.77;1773938;78;21188;-59
2021/08/28 09:34:25;;;;;;;6.65;4.17;;;;;;;27.56;68.99;100752.84;1784067;78;21130;-58
2021/08/28 09:37:04;;;;;;;12.03;4.67;;;;;;;27.57;69.02;100754.56;1775480;78;21290;-59
2021/08/28 09:40:10;;;;;;;5.58;4.17;;;;;;;27.53;69.38;100758.69;1777260;78;20957;-58
2021/08/28 09:42:39;;;;;;;6.25;4.97;;;;;;;27.54;69.19;100753.52;1712893;82;21096;-59
2021/08/28 09:45:11;;;;;;;7.20;4.53;;;;;;;27.58;69.80;100749.41;1768746;78;21092;-60
2021/08/28 09:47:40;;;;;;;7.20;4.80;;;;;;;27.60;69.19;100762.48;1773524;79;21819;-60
2021/08/28 09:50:09;;;;;;;9.05;4.22;;;;;;;27.58;68.99;100748.87;1749481;81;20990;-58
2021/08/28 09:52:36;;;;;;;6.60;4.33;;;;;;;27.60;69.19;100751.47;1765095;79;21044;-58
2021/08/28 09:55:04;;;;;;;5.47;3.80;;;;;;;27.56;69.37;100751.46;1770145;79;21119;-60
2021/08/28 09:57:32;;;;;;;7.55;4.30;;;;;;;27.53;69.52;100764.19;1726590;80;21101;-59
2021/08/28 10:00:00;;;;;;;6.28;4.20;;;;;;;27.50;70.02;100758.45;1764560;79;21289;-59
2021/08/28 10:02:27;;;;;;;7.03;4.50;;;;;;;27.55;70.73;100763.51;1766137;78;21104;-59
2021/08/28 10:04:56;;;;;;;6.65;4.05;;;;;;;27.62;70.63;100762.30;1757785;80;20965;-58
2021/08/28 10:07:30;;;;;;;8.48;4.40;;;;;;;27.66;70.77;100765.95;1763808;81;21013;-60
2021/08/28 10:10:01;;;;;;;4.95;3.85;;;;;;;27.70;70.81;100767.33;1750952;81;21652;-58
2021/08/28 10:12:32;;;;;;;7.15;4.30;;;;;;;27.72;70.35;100769.41;1757154;80;21024;-58
2021/08/28 10:15:00;;;;;;;9.48;4.87;;;;;;;27.65;69.91;100762.84;1763113;79;21415;-58
2021/08/28 10:17:27;;;;;;;7.42;4.20;;;;;;;27.59;70.39;100779.51;1766263;79;21040;-58
2021/08/28 10:19:55;;;;;;;9.20;4.50;;;;;;;27.64;70.49;100774.05;1775936;79;21216;-59
2021/08/28 10:22:27;;;;;;;4.58;3.52;;;;;;;27.73;70.28;100769.75;1771885;79;20988;-58
2021/08/28 10:24:57;;;;;;;4.95;3.83;;;;;;;27.85;69.51;100768.08;1761908;79;21672;-59
2021/08/28 10:27:26;;;;;;;6.05;3.77;;;;;;;27.92;68.35;100773.26;1761768;79;20965;-58
2021/08/28 10:29:54;;;;;;;5.22;3.85;;;;;;;27.92;67.57;100773.26;1764721;79;21049;-60
2021/08/28 10:32:21;;;;;;;7.55;4.20;;;;;;;27.89;67.89;100776.35;1754969;79;21111;-58
2021/08/28 10:34:50;;;;;;;6.85;3.80;;;;;;;27.82;68.10;100777.53;1767310;79;21076;-59
2021/08/28 10:37:18;;;;;;;4.72;4.03;;;;;;;27.78;68.01;100780.80;1766839;79;21111;-59
2021/08/28 10:39:51;;;;;;;5.45;3.90;;;;;;;27.72;68.17;100783.17;1760915;79;21478;-61
2021/08/28 10:42:19;;;;;;;6.03;4.40;;;;;;;27.72;67.74;100780.42;1761853;81;21025;-58
2021/08/28 10:44:50;;;;;;;5.47;3.98;;;;;;;27.70;68.18;100778.34;1759943;81;22346;-59
2021/08/28 10:47:26;;;;;;;8.88;4.47;;;;;;;27.63;68.15;100773.17;1774419;78;20925;-58
2021/08/28 10:49:57;;;;;;;8.50;4.15;;;;;;;27.51;67.92;100764.34;1778780;78;21189;-58
2021/08/28 10:52:25;;;;;;;5.37;3.98;;;;;;;27.37;68.15;100765.80;1779443;78;20997;-59
2021/08/28 10:54:56;;;;;;;9.10;3.70;;;;;;;27.30;68.61;100778.46;1794691;78;21542;-59
2021/08/28 10:57:28;;;;;;;5.90;4.00;;;;;;;27.25;68.88;100778.09;1778416;78;21493;-59
2021/08/28 11:00:09;;;;;;;8.00;4.25;;;;;;;27.23;69.05;100774.64;1779677;78;21155;-58
2021/08/28 11:03:00;;;;;;;5.00;4.22;;;;;;;27.21;68.59;100773.95;1773443;78;21465;-61
2021/08/28 11:05:28;;;;;;;4.42;3.90;;;;;;;27.15;68.81;100768.08;1783995;78;21142;-58
2021/08/28 11:08:16;;;;;;;5.70;4.20;;;;;;;27.15;68.56;100759.83;1727792;81;21036;-59
2021/08/28 11:10:43;;;;;;;4.92;4.20;;;;;;;27.17;69.13;100767.90;1720392;82;21573;-59
2021/08/28 11:13:10;;;;;;;5.47;4.25;;;;;;;27.16;69.75;100775.31;1721601;82;21146;-60
2021/08/28 11:15:39;;;;;;;6.28;4.35;;;;;;;27.20;69.58;100780.48;1719464;81;21539;-59
2021/08/28 11:18:13;;;;;;;7.15;4.87;;;;;;;27.19;68.82;100781.02;1723535;81;21041;-59
2021/08/28 11:20:45;;;;;;;4.58;3.80;;;;;;;27.15;68.98;100768.58;1737077;81;21107;-59
2021/08/28 11:23:20;;;;;;;4.95;3.98;;;;;;;27.13;69.00;100772.00;1722920;82;21051;-60
2021/08/28 11:25:50;;;;;;;6.78;4.40;;;;;;;27.07;69.44;100765.26;1738457;80;21059;-59
2021/08/28 11:28:20;;;;;;;5.70;4.30;;;;;;;27.05;70.32;100767.84;1733625;80;21100;-59
2021/08/28 11:30:52;;;;;;;7.15;4.70;;;;;;;27.04;70.49;100769.71;1737613;80;21048;-59
2021/08/28 11:33:25;;;;;;;6.60;4.50;;;;;;;27.00;70.60;100754.56;1723822;82;21057;-60
2021/08/28 11:36:01;;;;;;;5.30;4.22;;;;;;;26.95;70.65;100759.69;1740972;80;21044;-59
2021/08/28 11:38:47;;;;;;;6.25;4.20;;;;;;;26.87;71.17;100754.49;1734151;81;21036;-60
2021/08/28 11:41:19;;;;;;;11.63;4.42;;;;;;;26.79;71.61;100759.88;1733024;81;21648;-59
2021/08/28 11:43:46;;;;;;;4.40;3.98;;;;;;;26.74;71.80;100755.37;1735230;81;21036;-59
2021/08/28 11:46:20;;;;;;;5.15;4.00;;;;;;;26.74;71.89;100750.73;1729415;82;21138;-61
2021/08/28 11:48:47;;;;;;;9.90;4.35;;;;;;;26.77;71.12;100746.80;1726328;81;20981;-59
2021/08/28 11:51:22;;;;;;;6.40;4.40;;;;;;;26.75;71.08;100746.11;1722930;82;21096;-59
2021/08/28 11:53:54;;;;;;;6.80;4.30;;;;;;;26.73;71.19;100745.41;1726914;82;21188;-58
2021/08/28 11:56:23;;;;;;;5.72;4.62;;;;;;;26.76;71.14;100745.08;1729600;81;21288;-59
2021/08/28 11:59:00;;;;;;;5.30;4.25;;;;;;;26.77;71.68;100739.93;1724198;82;21123;-59